Time;durP1;ratioP1;P1;durP2;ratioP2;P2;SDS_P1;SDS_P2;PMS_P1;PMS_P2;Temp;Humidity;BMP_temperature;BMP_pressure;BME280_temperature;BME280_humidity;BME280_pressure;Samples;Min_cycle;Max_cycle;Signal;HPM_P1;HPM_P2
2022/08/28 00:01:07;;;;;;;7.30;2.72;;;14.20;99.90;;;;;;5005238;28;20107;-61
2022/08/28 00:03:33;;;;;;;7.78;2.83;;;14.20;99.90;;;;;;5000015;28;20079;-60
2022/08/28 00:06:00;;;;;;;7.10;2.58;;;14.10;99.90;;;;;;5001649;28;20052;-61
2022/08/28 00:08:26;;;;;;;7.03;2.80;;;14.10;99.90;;;;;;5002965;28;20513;-60
2022/08/28 00:10:52;;;;;;;5.88;2.63;;;14.10;99.90;;;;;;5004624;28;20583;-60
2022/08/28 00:13:20;;;;;;;7.80;3.30;;;14.10;99.90;;;;;;5000690;28;20496;-60
2022/08/28 00:15:50;;;;;;;7.10;2.78;;;14.10;99.90;;;;;;5016601;28;20053;-60
2022/08/28 00:18:16;;;;;;;9.95;3.00;;;14.10;99.90;;;;;;5003866;28;20621;-60
2022/08/28 00:20:43;;;;;;;7.63;2.45;;;14.20;99.90;;;;;;5002507;28;20055;-60
2022/08/28 00:23:09;;;;;;;6.38;2.45;;;14.00;99.90;;;;;;5000034;28;20053;-60
2022/08/28 00:25:35;;;;;;;7.03;2.63;;;14.00;99.90;;;;;;5001839;28;20049;-60
2022/08/28 00:28:04;;;;;;;7.70;2.65;;;14.00;99.90;;;;;;5000561;28;21005;-60
2022/08/28 00:30:38;;;;;;;10.65;2.78;;;14.00;99.90;;;;;;5004343;28;20045;-60
2022/08/28 00:33:10;;;;;;;6.93;2.53;;;13.90;99.90;;;;;;4998379;28;20053;-60
2022/08/28 00:35:35;;;;;;;10.48;3.03;;;13.90;99.90;;;;;;4993280;28;20055;-60
2022/08/28 00:38:01;;;;;;;11.18;2.95;;;13.80;99.90;;;;;;4991735;28;20045;-61
2022/08/28 00:40:29;;;;;;;9.75;3.10;;;13.80;99.90;;;;;;4988110;28;20107;-61
2022/08/28 00:42:56;;;;;;;6.15;2.55;;;13.80;99.90;;;;;;4999104;28;20729;-60
2022/08/28 00:45:23;;;;;;;8.43;3.03;;;13.70;99.90;;;;;;5001088;28;20407;-60
2022/08/28 00:47:49;;;;;;;9.38;3.63;;;13.70;99.90;;;;;;5000171;28;20046;-60
2022/08/28 00:50:17;;;;;;;8.07;2.75;;;13.70;99.90;;;;;;5004981;28;20041;-60
2022/08/28 00:52:50;;;;;;;9.35;3.20;;;13.70;99.90;;;;;;5004920;28;20122;-60
2022/08/28 00:55:23;;;;;;;9.77;2.78;;;13.70;99.90;;;;;;4998772;28;20057;-60
2022/08/28 00:57:57;;;;;;;11.85;3.67;;;13.70;99.90;;;;;;5015436;28;20041;-60
2022/08/28 01:00:33;;;;;;;8.65;3.08;;;13.60;99.90;;;;;;5003943;28;20045;-60
2022/08/28 01:02:59;;;;;;;11.38;3.22;;;13.60;99.90;;;;;;5001703;28;20064;-60
2022/08/28 01:05:27;;;;;;;6.15;3.30;;;13.60;99.90;;;;;;5002782;28;20201;-60
2022/08/28 01:07:56;;;;;;;10.32;2.90;;;13.60;99.90;;;;;;5003216;28;20137;-61
2022/08/28 01:10:23;;;;;;;8.73;3.15;;;13.60;99.90;;;;;;5003744;28;20576;-59
2022/08/28 01:12:51;;;;;;;10.95;3.35;;;13.50;99.90;;;;;;5003825;28;20045;-61
2022/08/28 01:15:24;;;;;;;9.48;2.92;;;13.50;99.90;;;;;;5002428;28;20058;-60
2022/08/28 01:17:52;;;;;;;;;;;13.50;99.90;;;;;;5004344;28;20160;-61
2022/08/28 01:20:21;;;;;;;6.68;3.03;;;13.50;99.90;;;;;;5000222;28;19956;-60
2022/08/28 01:22:52;;;;;;;8.35;2.70;;;13.50;99.90;;;;;;5002301;28;20050;-60
2022/08/28 01:25:22;;;;;;;7.65;2.75;;;13.60;99.90;;;;;;5005439;28;20055;-60
2022/08/28 01:27:48;;;;;;;6.97;2.45;;;13.50;99.90;;;;;;5000942;28;20041;-60
2022/08/28 01:30:16;;;;;;;6.68;2.50;;;13.50;99.90;;;;;;5006165;28;20072;-60
2022/08/28 01:32:46;;;;;;;12.15;3.30;;;13.50;99.90;;;;;;5005835;28;20049;-60
2022/08/28 01:35:17;;;;;;;8.18;3.15;;;13.50;99.90;;;;;;5001468;28;20052;-60
2022/08/28 01:37:44;;;;;;;10.35;2.67;;;13.50;99.90;;;;;;5009359;28;20033;-60
2022/08/28 01:40:12;;;;;;;7.32;2.70;;;13.50;99.90;;;;;;5008822;28;20041;-60
2022/08/28 01:42:40;;;;;;;10.80;2.90;;;13.50;99.90;;;;;;5005712;28;20894;-59
2022/08/28 01:45:09;;;;;;;8.77;2.80;;;13.50;99.90;;;;;;5004449;28;20045;-60
2022/08/28 01:47:40;;;;;;;10.30;3.22;;;13.50;99.90;;;;;;5001811;28;20132;-60
2022/08/28 01:50:08;;;;;;;10.32;3.03;;;13.50;99.90;;;;;;5006979;28;20041;-60
2022/08/28 01:52:35;;;;;;;8.10;3.00;;;13.50;99.90;;;;;;5006736;28;20076;-60
2022/08/28 01:55:02;;;;;;;9.60;2.90;;;13.40;99.90;;;;;;5005489;28;20084;-60
2022/08/28 01:57:28;;;;;;;5.68;2.75;;;13.40;99.90;;;;;;5002476;28;20049;-60
2022/08/28 01:59:54;;;;;;;9.93;3.20;;;13.40;99.90;;;;;;5002297;28;20143;-60
2022/08/28 02:02:21;;;;;;;9.68;3.20;;;13.40;99.90;;;;;;5004313;28;20038;-60
2022/08/28 02:04:47;;;;;;;8.80;2.72;;;13.40;99.90;;;;;;5006445;28;20190;-60
2022/08/28 02:07:13;;;;;;;6.68;2.80;;;13.40;99.90;;;;;;5007362;28;20053;-60
2022/08/28 02:09:38;;;;;;;9.80;3.45;;;13.40;99.90;;;;;;5006064;28;20045;-60
2022/08/28 02:12:05;;;;;;;10.65;2.97;;;13.30;99.90;;;;;;5004204;28;20511;-59
2022/08/28 02:14:32;;;;;;;11.88;2.67;;;13.30;99.90;;;;;;5004355;28;20054;-60
2022/08/28 02:16:57;;;;;;;9.93;2.88;;;13.30;99.90;;;;;;5005701;28;20996;-60
2022/08/28 02:19:24;;;;;;;10.50;2.83;;;13.30;99.90;;;;;;4969871;28;20045;-60
2022/08/28 02:21:50;;;;;;;8.00;2.83;;;13.30;99.90;;;;;;5000649;28;20163;-60
2022/08/28 02:24:16;;;;;;;4.38;2.50;;;13.20;99.90;;;;;;5001684;28;20076;-60
2022/08/28 02:26:43;;;;;;;7.10;2.70;;;13.20;99.90;;;;;;5004296;28;20041;-60
2022/08/28 02:29:10;;;;;;;8.75;2.85;;;13.20;99.90;;;;;;5008852;28;20087;-60
2022/08/28 02:31:36;;;;;;;12.75;3.03;;;13.20;99.90;;;;;;5001760;28;20109;-59
2022/08/28 02:34:03;;;;;;;7.65;2.53;;;13.10;99.90;;;;;;5002026;28;20053;-60
2022/08/28 02:36:29;;;;;;;5.22;2.40;;;13.10;99.90;;;;;;5002281;28;20488;-60
2022/08/28 02:38:55;;;;;;;12.50;2.63;;;13.10;99.90;;;;;;5004890;28;20503;-60
2022/08/28 02:41:21;;;;;;;11.43;2.65;;;13.10;99.90;;;;;;5006770;28;20711;-60
2022/08/28 02:43:47;;;;;;;8.50;2.83;;;13.10;99.90;;;;;;5004923;28;20041;-60
2022/08/28 02:46:13;;;;;;;12.68;2.58;;;13.00;99.90;;;;;;5004795;28;20140;-60
2022/08/28 02:48:39;;;;;;;11.13;2.55;;;13.00;99.90;;;;;;5003112;28;21641;-60
2022/08/28 02:51:08;;;;;;;6.00;1.95;;;13.00;99.90;;;;;;5006102;28;20037;-60
2022/08/28 02:53:34;;;;;;;4.97;2.17;;;13.00;99.90;;;;;;5006043;28;20056;-60
2022/08/28 02:56:01;;;;;;;5.70;2.30;;;12.90;99.90;;;;;;5005812;28;20619;-60
2022/08/28 02:58:31;;;;;;;7.05;2.35;;;13.00;99.90;;;;;;5004994;28;20041;-60
2022/08/28 03:01:00;;;;;;;6.32;2.20;;;13.00;99.90;;;;;;5006217;28;20409;-60
2022/08/28 03:03:29;;;;;;;11.02;2.47;;;13.00;99.90;;;;;;5004159;28;20080;-61
2022/08/28 03:05:59;;;;;;;6.50;2.10;;;13.00;99.90;;;;;;5001812;28;20085;-60
2022/08/28 03:08:25;;;;;;;5.15;1.75;;;13.00;99.90;;;;;;5001208;28;20052;-59
2022/08/28 03:10:52;;;;;;;12.57;2.20;;;13.00;99.90;;;;;;5010071;28;20128;-59
2022/08/28 03:13:18;;;;;;;9.07;2.38;;;13.00;99.90;;;;;;4997652;28;20053;-59
2022/08/28 03:15:45;;;;;;;8.18;2.30;;;13.10;99.90;;;;;;4994222;28;20120;-60
2022/08/28 03:18:13;;;;;;;7.35;2.28;;;13.20;99.90;;;;;;5002397;28;20041;-60
2022/08/28 03:20:39;;;;;;;11.63;2.53;;;13.20;99.90;;;;;;5003958;28;20143;-59
2022/08/28 03:25:50;;;;;;;6.95;1.88;;;13.30;99.90;;;;;;5018617;28;20143;-59
2022/08/28 03:28:16;;;;;;;7.63;2.30;;;13.40;99.90;;;;;;5003647;28;20045;-60
2022/08/28 03:30:41;;;;;;;8.88;2.20;;;13.40;99.90;;;;;;4998448;28;20048;-59
2022/08/28 03:33:08;;;;;;;6.65;1.90;;;13.40;99.90;;;;;;4986682;28;20091;-60
2022/08/28 03:35:36;;;;;;;8.25;2.20;;;13.50;99.90;;;;;;4980417;28;20081;-60
2022/08/28 03:38:03;;;;;;;10.07;2.35;;;13.50;99.90;;;;;;4998974;28;20527;-60
2022/08/28 03:40:29;;;;;;;8.93;2.47;;;13.50;99.90;;;;;;4987939;28;20057;-60
2022/08/28 03:42:55;;;;;;;8.25;2.60;;;13.60;99.90;;;;;;4982879;28;20125;-60
2022/08/28 03:45:21;;;;;;;8.65;2.75;;;13.60;99.90;;;;;;4985218;28;20054;-60
2022/08/28 03:47:48;;;;;;;8.57;2.90;;;13.60;99.90;;;;;;5000310;28;20049;-59
2022/08/28 03:50:15;;;;;;;7.20;2.17;;;13.60;99.90;;;;;;5006184;28;21162;-61
2022/08/28 03:52:41;;;;;;;8.25;2.45;;;13.70;99.90;;;;;;4995123;28;20053;-60
2022/08/28 03:55:10;;;;;;;9.77;2.60;;;13.60;99.90;;;;;;4982939;28;20057;-60
2022/08/28 03:57:36;;;;;;;8.60;2.42;;;13.60;99.90;;;;;;4987470;28;20045;-60
2022/08/28 04:00:06;;;;;;;7.38;2.20;;;13.60;99.90;;;;;;4981568;28;20045;-60
2022/08/28 04:02:31;;;;;;;11.40;2.58;;;13.60;99.90;;;;;;4984840;28;20056;-59
2022/08/28 04:04:57;;;;;;;6.32;2.28;;;13.60;99.90;;;;;;4985717;28;20085;-60
2022/08/28 04:07:23;;;;;;;10.30;2.45;;;13.50;99.90;;;;;;4993787;28;20102;-60
2022/08/28 04:09:49;;;;;;;6.97;2.25;;;13.50;99.90;;;;;;4983388;28;20045;-60
2022/08/28 04:12:15;;;;;;;9.48;2.70;;;13.40;99.90;;;;;;4993804;28;20038;-59
2022/08/28 04:14:40;;;;;;;9.13;2.42;;;13.40;99.90;;;;;;4988255;28;20037;-60
2022/08/28 04:17:07;;;;;;;6.90;2.33;;;13.40;99.90;;;;;;4984488;28;20129;-60
2022/08/28 04:19:33;;;;;;;7.60;2.63;;;13.30;99.90;;;;;;4984592;28;20037;-60
2022/08/28 04:22:00;;;;;;;8.32;2.38;;;13.30;99.90;;;;;;4993297;28;20045;-60
2022/08/28 04:24:26;;;;;;;8.85;2.40;;;13.30;99.90;;;;;;4985750;28;20492;-60
2022/08/28 04:26:52;;;;;;;11.65;2.95;;;13.20;99.90;;;;;;4990256;28;20129;-60
2022/08/28 04:29:18;;;;;;;8.23;2.85;;;13.20;99.90;;;;;;4975321;28;20046;-59
2022/08/28 04:31:44;;;;;;;8.05;2.30;;;13.20;99.90;;;;;;4982946;28;20734;-59
2022/08/28 04:34:10;;;;;;;8.40;2.13;;;13.20;99.90;;;;;;4979626;28;20125;-60
2022/08/28 04:36:36;;;;;;;6.32;2.33;;;13.20;99.90;;;;;;4990533;28;21045;-60
2022/08/28 04:39:04;;;;;;;9.95;2.63;;;13.20;99.90;;;;;;4984247;28;20621;-60
2022/08/28 04:41:31;;;;;;;12.13;2.58;;;13.10;99.90;;;;;;4999882;28;20060;-60
2022/08/28 04:43:57;;;;;;;9.07;2.42;;;13.20;99.90;;;;;;5003688;28;20141;-60
2022/08/28 04:46:24;;;;;;;8.07;2.22;;;13.20;99.90;;;;;;5003149;28;20124;-59
2022/08/28 04:48:49;;;;;;;8.75;2.50;;;13.20;99.90;;;;;;5013167;28;20094;-60
2022/08/28 04:51:15;;;;;;;9.25;2.35;;;13.30;99.90;;;;;;5011845;28;20050;-60
2022/08/28 04:53:42;;;;;;;7.95;2.22;;;13.30;99.90;;;;;;4995832;28;20081;-60
2022/08/28 04:56:12;;;;;;;7.45;2.35;;;13.40;99.90;;;;;;5013414;28;20064;-60
2022/08/28 04:58:39;;;;;;;7.90;2.75;;;13.40;99.90;;;;;;5010893;28;20060;-60
2022/08/28 05:01:14;;;;;;;7.13;2.17;;;13.40;99.90;;;;;;5022029;28;20491;-60
2022/08/28 05:03:41;;;;;;;8.05;2.38;;;13.50;99.90;;;;;;5001430;28;20084;-60
2022/08/28 05:06:07;;;;;;;6.13;2.55;;;13.50;99.90;;;;;;5008285;28;20548;-60
2022/08/28 05:08:33;;;;;;;10.95;2.55;;;13.40;99.90;;;;;;5011435;28;20058;-60
2022/08/28 05:11:15;;;;;;;10.52;2.55;;;13.50;99.90;;;;;;5005520;28;20041;-60
2022/08/28 05:13:42;;;;;;;6.18;2.15;;;13.50;99.90;;;;;;5004775;28;20056;-61
2022/08/28 05:16:07;;;;;;;9.75;2.47;;;13.60;99.90;;;;;;5008397;28;20060;-60
2022/08/28 05:18:34;;;;;;;8.00;2.47;;;13.70;99.90;;;;;;5000124;28;20747;-61
2022/08/28 05:21:01;;;;;;;10.32;2.50;;;13.80;99.90;;;;;;4985998;28;20062;-60
2022/08/28 05:23:27;;;;;;;17.50;2.63;;;13.90;99.90;;;;;;5003145;28;22149;-60
2022/08/28 05:25:54;;;;;;;7.57;2.20;;;13.90;99.90;;;;;;5000539;28;20073;-60
2022/08/28 05:28:23;;;;;;;7.00;2.50;;;14.00;99.90;;;;;;5006090;28;20053;-60
2022/08/28 05:30:50;;;;;;;13.10;2.03;;;14.10;99.90;;;;;;5008771;28;20447;-60
2022/08/28 05:33:15;;;;;;;9.43;2.08;;;14.10;99.90;;;;;;5001888;28;20562;-60
2022/08/28 05:35:44;;;;;;;8.30;1.88;;;14.20;99.90;;;;;;5004230;28;20042;-60
2022/08/28 05:38:12;;;;;;;9.98;2.25;;;14.30;99.90;;;;;;5000910;28;20049;-60
2022/08/28 05:40:46;;;;;;;8.05;2.00;;;14.40;99.90;;;;;;5011411;28;20056;-60
2022/08/28 05:43:13;;;;;;;7.47;2.20;;;14.50;99.90;;;;;;5021692;28;20128;-60
2022/08/28 05:45:40;;;;;;;10.98;2.20;;;14.60;99.90;;;;;;5006242;28;20198;-60
2022/08/28 05:48:05;;;;;;;9.98;1.98;;;14.80;99.90;;;;;;5004099;28;20051;-60
2022/08/28 05:50:32;;;;;;;10.50;1.95;;;14.90;99.90;;;;;;5001145;28;20037;-60
2022/08/28 05:52:58;;;;;;;10.23;3.30;;;15.00;99.90;;;;;;5002942;28;20068;-60
2022/08/28 05:55:23;;;;;;;8.30;1.88;;;15.00;99.90;;;;;;5006805;28;20412;-59
2022/08/28 05:57:49;;;;;;;7.50;1.95;;;15.10;99.90;;;;;;5003803;28;20135;-60
2022/08/28 06:00:17;;;;;;;12.18;1.98;;;15.20;99.90;;;;;;5006031;28;20049;-61
2022/08/28 06:02:43;;;;;;;9.05;1.98;;;15.20;99.90;;;;;;5007405;28;20743;-60
2022/08/28 06:05:09;;;;;;;7.95;2.15;;;15.30;99.90;;;;;;5006623;28;20049;-59
2022/08/28 06:07:35;;;;;;;13.73;2.45;;;15.40;99.90;;;;;;5004816;28;20111;-61
2022/08/28 06:10:00;;;;;;;7.70;2.00;;;15.40;99.90;;;;;;5003408;28;20519;-60
2022/08/28 06:12:26;;;;;;;13.85;2.65;;;15.40;99.90;;;;;;4998182;28;20041;-60
2022/08/28 06:14:52;;;;;;;8.38;2.03;;;15.40;99.90;;;;;;5001807;28;20054;-59
2022/08/28 06:17:18;;;;;;;11.85;2.50;;;15.50;99.90;;;;;;5006796;28;20498;-61
2022/08/28 06:19:44;;;;;;;8.18;2.00;;;15.50;99.90;;;;;;5007907;28;20045;-60
2022/08/28 06:22:13;;;;;;;6.53;1.92;;;15.50;99.90;;;;;;5005736;28;20037;-60
2022/08/28 06:24:39;;;;;;;6.95;1.83;;;15.50;99.90;;;;;;5004254;28;20049;-60
2022/08/28 06:27:05;;;;;;;5.55;1.77;;;15.60;99.90;;;;;;5006509;28;20045;-60
2022/08/28 06:29:31;;;;;;;9.52;2.17;;;15.60;99.90;;;;;;5013097;28;20131;-60
2022/08/28 06:32:02;;;;;;;6.65;1.55;;;15.70;99.90;;;;;;5018634;28;20476;-59
2022/08/28 06:34:28;;;;;;;11.20;2.17;;;15.70;99.90;;;;;;5018031;28;20128;-60
2022/08/28 06:36:54;;;;;;;7.35;1.80;;;15.80;99.90;;;;;;5013173;28;20069;-61
2022/08/28 06:39:21;;;;;;;9.70;2.10;;;15.80;99.90;;;;;;5015965;28;20103;-60
2022/08/28 06:41:46;;;;;;;5.30;1.67;;;15.90;99.90;;;;;;5007213;28;20463;-61
2022/08/28 06:44:21;;;;;;;14.02;2.13;;;16.00;99.90;;;;;;5000677;28;20054;-60
2022/08/28 06:46:49;;;;;;;6.93;2.00;;;16.00;99.90;;;;;;5021085;28;20049;-61
2022/08/28 06:49:15;;;;;;;5.97;1.90;;;16.10;99.90;;;;;;5014366;28;20037;-60
2022/08/28 06:51:41;;;;;;;12.93;2.22;;;16.20;99.90;;;;;;5020292;28;20068;-61
2022/08/28 06:54:07;;;;;;;7.80;1.92;;;16.20;99.90;;;;;;5013377;28;20053;-60
2022/08/28 06:56:33;;;;;;;7.10;2.22;;;16.20;99.90;;;;;;5018835;28;20049;-60
2022/08/28 06:58:59;;;;;;;10.18;1.92;;;16.20;99.90;;;;;;5019086;28;20411;-61
2022/08/28 07:01:36;;;;;;;7.90;2.17;;;16.20;99.90;;;;;;5002245;28;20053;-61
2022/08/28 07:04:06;;;;;;;12.02;2.10;;;16.20;99.90;;;;;;5018178;28;20037;-60
2022/08/28 07:06:36;;;;;;;7.03;1.90;;;16.10;99.90;;;;;;5018567;28;20080;-61
2022/08/28 07:09:05;;;;;;;6.80;1.98;;;16.10;99.90;;;;;;5017291;28;20080;-61
2022/08/28 07:11:33;;;;;;;7.50;2.00;;;16.10;99.90;;;;;;5021552;28;20048;-60
2022/08/28 07:14:00;;;;;;;7.30;2.00;;;16.10;99.90;;;;;;5017896;28;20080;-61
2022/08/28 07:16:29;;;;;;;6.03;2.05;;;16.20;99.90;;;;;;5011539;28;20107;-61
2022/08/28 07:18:56;;;;;;;8.00;1.83;;;16.20;99.90;;;;;;5017416;28;20207;-60
2022/08/28 07:21:22;;;;;;;8.18;1.67;;;16.30;99.90;;;;;;4997533;28;20042;-61
2022/08/28 07:23:47;;;;;;;6.78;1.90;;;16.30;99.90;;;;;;5035096;28;20045;-61
2022/08/28 07:26:17;;;;;;;5.97;2.22;;;16.30;99.90;;;;;;5015700;28;20052;-61
2022/08/28 07:28:43;;;;;;;9.07;1.77;;;16.30;99.90;;;;;;5018352;28;20045;-60
2022/08/28 07:31:13;;;;;;;9.07;2.20;;;16.50;99.90;;;;;;5012669;28;20086;-61
2022/08/28 07:33:39;;;;;;;6.57;2.08;;;16.60;99.90;;;;;;5012408;28;20068;-60
2022/08/28 07:36:08;;;;;;;6.68;1.90;;;16.90;99.80;;;;;;5011711;28;20049;-61
2022/08/28 07:38:34;;;;;;;6.72;1.95;;;17.10;99.30;;;;;;5034179;28;20053;-60
2022/08/28 07:41:01;;;;;;;8.18;1.80;;;17.40;98.80;;;;;;5013089;28;20048;-60
2022/08/28 07:46:11;;;;;;;9.82;2.13;;;17.80;97.70;;;;;;5012283;28;20045;-61
2022/08/28 07:48:39;;;;;;;7.85;1.90;;;17.90;97.60;;;;;;5011743;28;20049;-61
2022/08/28 07:51:07;;;;;;;11.98;1.75;;;17.90;97.20;;;;;;5012388;28;20050;-60
2022/08/28 07:53:35;;;;;;;8.20;2.25;;;17.90;97.10;;;;;;5006124;28;20846;-61
2022/08/28 07:56:01;;;;;;;8.40;1.88;;;17.90;97.10;;;;;;5014581;28;20609;-61
2022/08/28 07:58:27;;;;;;;10.15;2.05;;;17.90;97.00;;;;;;5015066;28;20049;-61
2022/08/28 08:00:53;;;;;;;9.52;2.10;;;18.00;97.20;;;;;;5016086;28;20455;-60
2022/08/28 08:03:19;;;;;;;11.85;2.10;;;18.00;97.30;;;;;;5009033;28;20560;-61
2022/08/28 08:05:57;;;;;;;10.20;2.35;;;18.10;97.30;;;;;;5005162;28;20156;-60
2022/08/28 08:08:23;;;;;;;11.45;2.25;;;18.20;97.30;;;;;;5007858;28;20108;-60
2022/08/28 08:11:04;;;;;;;6.88;1.95;;;18.30;97.00;;;;;;5006880;28;20088;-61
2022/08/28 08:13:32;;;;;;;10.38;2.10;;;18.40;96.70;;;;;;5005267;28;20049;-61
2022/08/28 08:16:13;;;;;;;6.47;1.80;;;18.60;96.10;;;;;;5004689;28;20493;-61
2022/08/28 08:18:40;;;;;;;9.30;2.13;;;18.80;95.40;;;;;;5020003;28;20850;-61
2022/08/28 08:21:08;;;;;;;9.23;1.70;;;18.80;95.00;;;;;;5008187;28;20396;-61
2022/08/28 08:23:35;;;;;;;9.77;2.28;;;18.80;94.60;;;;;;5006775;28;20057;-61
2022/08/28 08:26:05;;;;;;;6.50;1.92;;;18.70;94.30;;;;;;5004744;28;20096;-61
2022/08/28 08:28:33;;;;;;;6.90;2.03;;;18.60;94.40;;;;;;5008921;28;20041;-61
2022/08/28 08:31:17;;;;;;;8.10;2.33;;;18.80;95.10;;;;;;5005269;28;20119;-61
2022/08/28 08:33:49;;;;;;;6.35;1.73;;;18.90;95.10;;;;;;5006458;28;20041;-61
2022/08/28 08:36:18;;;;;;;11.65;2.30;;;18.90;94.70;;;;;;5005284;28;20081;-61
2022/08/28 08:38:44;;;;;;;9.63;2.22;;;18.70;94.50;;;;;;5006113;28;20423;-61
2022/08/28 08:41:16;;;;;;;11.45;2.42;;;18.70;94.60;;;;;;5007028;28;20067;-61
2022/08/28 08:44:16;;;;;;;7.32;2.22;;;18.80;94.80;;;;;;4999501;28;20404;-61
2022/08/28 08:46:52;;;;;;;7.80;1.95;;;19.00;94.20;;;;;;4999530;28;20049;-61
2022/08/28 08:49:24;;;;;;;5.28;1.70;;;19.20;93.20;;;;;;5027463;28;20512;-60
2022/08/28 08:51:53;;;;;;;8.18;2.63;;;19.30;92.20;;;;;;4997754;28;20042;-60
2022/08/28 08:54:20;;;;;;;7.95;2.00;;;19.40;91.70;;;;;;5020376;28;20385;-61
2022/08/28 08:56:48;;;;;;;10.70;2.10;;;19.40;91.20;;;;;;5011023;28;20500;-61
2022/08/28 08:59:20;;;;;;;8.20;1.77;;;19.50;91.40;;;;;;5015947;28;20045;-61
2022/08/28 09:02:04;;;;;;;7.38;1.88;;;19.60;91.40;;;;;;5016321;28;20041;-61
2022/08/28 09:04:38;;;;;;;11.43;2.50;;;19.80;90.80;;;;;;5014901;28;20602;-61
2022/08/28 09:07:36;;;;;;;6.85;1.92;;;20.00;90.80;;;;;;5008194;28;20049;-61
2022/08/28 09:10:05;;;;;;;10.63;2.03;;;20.10;89.50;;;;;;5014447;28;20127;-61
2022/08/28 09:13:03;;;;;;;6.25;1.80;;;20.00;88.30;;;;;;5008676;28;20080;-61
2022/08/28 09:15:32;;;;;;;6.32;1.90;;;19.90;88.60;;;;;;5000483;28;20057;-61
2022/08/28 09:18:31;;;;;;;9.65;2.08;;;20.00;88.70;;;;;;5002004;28;20711;-61
2022/08/28 09:20:58;;;;;;;4.80;1.52;;;20.10;89.40;;;;;;5003967;28;20504;-61
2022/08/28 09:23:27;;;;;;;7.28;1.80;;;20.20;87.50;;;;;;5004678;28;20041;-61
2022/08/28 09:26:10;;;;;;;7.57;1.75;;;20.30;86.10;;;;;;5006326;28;20049;-61
2022/08/28 09:28:41;;;;;;;7.90;2.15;;;20.40;84.80;;;;;;5003046;28;20131;-61
2022/08/28 09:31:14;;;;;;;7.80;1.83;;;20.50;83.10;;;;;;5006446;28;20033;-61
2022/08/28 09:33:46;;;;;;;7.43;1.95;;;20.50;83.30;;;;;;5001421;28;20067;-61
2022/08/28 09:36:28;;;;;;;4.60;1.98;;;20.50;83.70;;;;;;5000838;28;20456;-61
2022/08/28 09:39:12;;;;;;;8.98;2.05;;;20.60;84.10;;;;;;5008011;28;20743;-61
2022/08/28 09:45:00;;;;;;;11.85;1.80;;;20.60;84.70;;;;;;5003395;28;20053;-61
2022/08/28 09:47:48;;;;;;;6.20;1.75;;;20.60;84.10;;;;;;5008793;28;20037;-61
2022/08/28 09:50:25;;;;;;;7.25;2.13;;;20.60;83.80;;;;;;5015274;28;20037;-61
2022/08/28 09:52:54;;;;;;;4.15;1.88;;;20.40;84.40;;;;;;5021410;28;20045;-61
2022/08/28 09:55:28;;;;;;;8.40;2.50;;;20.40;84.90;;;;;;5012222;28;20069;-60
2022/08/28 09:57:55;;;;;;;8.95;2.05;;;20.30;85.20;;;;;;5017541;28;20640;-61
2022/08/28 10:00:21;;;;;;;6.95;1.85;;;20.30;85.80;;;;;;5014039;28;20045;-61
2022/08/28 10:03:20;;;;;;;8.93;2.63;;;20.20;86.00;;;;;;5021709;28;20453;-61
2022/08/28 10:06:12;;;;;;;6.47;2.00;;;20.30;87.30;;;;;;5020060;28;20086;-61
2022/08/28 10:09:00;;;;;;;7.63;1.85;;;20.30;84.80;;;;;;5018502;28;20136;-61
2022/08/28 10:11:50;;;;;;;8.50;2.13;;;20.20;84.70;;;;;;5016288;28;20100;-61
2022/08/28 10:14:41;;;;;;;6.95;2.13;;;20.10;84.20;;;;;;5016037;28;20037;-61
2022/08/28 10:17:36;;;;;;;7.40;2.20;;;20.40;85.70;;;;;;5016830;28;20469;-60
2022/08/28 10:20:21;;;;;;;8.35;2.10;;;20.60;83.50;;;;;;5018398;28;20045;-61
2022/08/28 10:22:55;;;;;;;5.90;1.90;;;20.70;83.40;;;;;;5020556;28;20049;-61
2022/08/28 10:25:51;;;;;;;6.53;1.80;;;20.80;82.90;;;;;;5016666;28;20466;-61
2022/08/28 10:29:03;;;;;;;6.32;1.80;;;21.10;83.00;;;;;;5006793;28;20072;-61
2022/08/28 10:31:43;;;;;;;7.60;2.00;;;21.40;81.30;;;;;;4961933;28;20054;-61
2022/08/28 10:34:23;;;;;;;5.72;2.08;;;21.50;79.60;;;;;;4970897;28;20054;-60
2022/08/28 10:37:08;;;;;;;5.20;1.80;;;21.40;79.20;;;;;;4995545;28;20056;-62
2022/08/28 10:39:56;;;;;;;9.10;1.90;;;21.50;80.30;;;;;;5014222;28;20052;-61
2022/08/28 10:42:31;;;;;;;9.02;1.80;;;21.70;79.10;;;;;;5020393;28;20125;-61
2022/08/28 10:45:12;;;;;;;9.23;2.10;;;21.60;78.00;;;;;;5004737;28;20546;-61
2022/08/28 10:47:41;;;;;;;6.10;2.05;;;21.50;78.50;;;;;;5010435;28;20041;-60
2022/08/28 10:50:47;;;;;;;8.82;1.95;;;21.50;78.90;;;;;;5012808;28;20045;-63
2022/08/28 10:53:18;;;;;;;9.55;1.80;;;21.70;80.10;;;;;;5008879;28;20125;-62
2022/08/28 10:55:58;;;;;;;8.45;2.42;;;22.00;79.70;;;;;;5007347;28;20088;-61
2022/08/28 10:58:26;;;;;;;4.63;1.60;;;22.00;78.30;;;;;;5006521;28;20065;-60
2022/08/28 11:01:03;;;;;;;7.18;1.92;;;21.90;77.00;;;;;;5006810;28;20059;-62
2022/08/28 11:03:39;;;;;;;5.78;1.77;;;21.90;76.40;;;;;;5007310;28;20049;-62
2022/08/28 11:06:29;;;;;;;6.50;1.85;;;21.90;75.30;;;;;;5008598;28;20049;-62
2022/08/28 11:08:58;;;;;;;6.53;1.90;;;22.20;75.30;;;;;;5009240;28;20133;-61
2022/08/28 11:11:44;;;;;;;5.93;1.88;;;22.50;75.10;;;;;;5005929;28;20392;-62
2022/08/28 11:14:29;;;;;;;4.63;1.98;;;22.70;74.70;;;;;;5008201;28;20046;-61
2022/08/28 11:17:23;;;;;;;5.90;1.83;;;22.90;74.60;;;;;;5011360;28;20045;-61
2022/08/28 11:20:08;;;;;;;4.35;1.70;;;23.00;72.70;;;;;;5002813;28;20041;-62
2022/08/28 11:22:36;;;;;;;8.25;2.10;;;23.10;71.00;;;;;;5009207;28;20072;-62
2022/08/28 11:25:05;;;;;;;4.75;1.83;;;23.20;70.00;;;;;;5008919;28;20503;-62
2022/08/28 11:27:34;;;;;;;9.00;1.83;;;23.20;69.30;;;;;;5006680;28;20060;-61
2022/08/28 11:30:09;;;;;;;4.28;1.60;;;23.10;69.30;;;;;;5000389;28;20748;-62
2022/08/28 11:32:50;;;;;;;5.30;1.90;;;23.00;69.30;;;;;;5017254;28;20044;-62
2022/08/28 11:35:37;;;;;;;5.57;2.10;;;23.00;70.10;;;;;;5019021;28;20049;-62
2022/08/28 11:38:04;;;;;;;9.82;2.03;;;23.20;70.00;;;;;;5016996;28;20053;-62
2022/08/28 11:40:32;;;;;;;7.63;2.13;;;23.40;69.90;;;;;;5019639;28;20500;-62
2022/08/28 11:43:13;;;;;;;8.77;2.03;;;23.40;69.00;;;;;;5019801;28;20099;-62
2022/08/28 11:45:42;;;;;;;6.93;1.88;;;23.30;68.20;;;;;;5020975;28;20045;-62
2022/08/28 11:48:38;;;;;;;7.97;1.63;;;23.40;69.80;;;;;;5032380;28;20494;-62
2022/08/28 11:51:06;;;;;;;8.25;2.05;;;23.30;68.80;;;;;;5014480;28;20495;-61
2022/08/28 11:53:59;;;;;;;4.15;1.75;;;23.30;69.40;;;;;;5018602;28;20476;-62
2022/08/28 11:56:39;;;;;;;;;;;23.40;69.10;;;;;;5020376;28;20081;-62
2022/08/28 11:59:20;;;;;;;6.53;1.90;;;23.30;69.00;;;;;;5018742;28;19920;-61
2022/08/28 12:01:46;;;;;;;7.07;1.70;;;23.10;69.00;;;;;;5016743;28;20547;-62
2022/08/28 12:04:19;;;;;;;5.63;2.03;;;22.80;68.50;;;;;;5017307;28;20055;-62
2022/08/28 12:06:47;;;;;;;;;;;22.60;68.00;;;;;;5022126;28;20512;-62
2022/08/28 12:09:25;;;;;;;5.22;1.65;;;22.40;68.40;;;;;;5018525;28;19923;-62
2022/08/28 12:12:20;;;;;;;6.88;1.80;;;22.50;67.40;;;;;;5016768;28;20046;-62
2022/08/28 12:14:45;;;;;;;5.65;1.52;;;22.80;67.80;;;;;;5002164;28;20049;-62
2022/08/28 12:17:20;;;;;;;4.38;1.80;;;23.00;66.80;;;;;;4994222;28;20041;-62
2022/08/28 12:19:55;;;;;;;6.45;1.80;;;23.00;65.90;;;;;;5015267;28;20045;-61
2022/08/28 12:22:25;;;;;;;6.05;1.83;;;23.10;65.80;;;;;;5002105;28;20056;-62
2022/08/28 12:25:06;;;;;;;4.22;1.92;;;23.20;65.80;;;;;;5018889;28;20049;-61
2022/08/28 12:27:37;;;;;;;4.57;1.70;;;23.20;66.00;;;;;;5019413;28;20563;-61
2022/08/28 12:30:03;;;;;;;5.28;1.60;;;23.10;65.80;;;;;;5016004;28;20039;-62
2022/08/28 12:32:55;;;;;;;6.35;1.60;;;22.90;66.40;;;;;;5015870;28;20057;-62
2022/08/28 12:35:24;;;;;;;5.90;1.60;;;22.90;67.10;;;;;;5017301;28;20473;-61
2022/08/28 12:37:53;;;;;;;6.05;1.55;;;22.90;67.50;;;;;;5016472;28;20054;-61
2022/08/28 12:40:36;;;;;;;5.57;1.60;;;22.90;67.40;;;;;;5018841;28;20497;-62
2022/08/28 12:43:03;;;;;;;4.50;1.67;;;22.80;68.20;;;;;;5033369;28;20045;-61
2022/08/28 12:45:35;;;;;;;4.43;1.35;;;22.90;68.60;;;;;;5016176;28;20488;-62
2022/08/28 12:48:14;;;;;;;5.88;1.40;;;22.90;69.20;;;;;;5019175;28;20117;-62
2022/08/28 12:50:40;;;;;;;5.68;1.70;;;22.90;69.00;;;;;;5015644;28;20049;-62
2022/08/28 12:53:12;;;;;;;4.07;1.42;;;22.80;69.70;;;;;;5018295;28;20047;-62
2022/08/28 12:55:39;;;;;;;7.63;1.40;;;22.60;70.10;;;;;;5019267;28;20132;-61
2022/08/28 12:58:12;;;;;;;5.38;1.40;;;22.50;70.30;;;;;;5019773;28;20674;-62
2022/08/28 13:00:53;;;;;;;6.13;1.58;;;22.40;70.80;;;;;;5015686;28;20396;-62
2022/08/28 13:03:20;;;;;;;6.70;1.30;;;22.40;71.30;;;;;;5017166;28;20041;-62
2022/08/28 13:05:59;;;;;;;7.18;1.80;;;22.40;71.80;;;;;;5018374;28;20490;-62
2022/08/28 13:08:25;;;;;;;8.95;1.63;;;22.40;71.90;;;;;;5019479;28;20122;-61
2022/08/28 13:10:51;;;;;;;4.13;1.27;;;22.30;71.70;;;;;;5017114;28;20053;-62
2022/08/28 13:13:40;;;;;;;5.05;1.10;;;22.20;71.50;;;;;;5031928;28;20053;-62